Brookshire, TX (77423)

6:09 PM CDT on September 03, 2015 (GMT -0500)
McMurtry - Indian Oaks | | Change Station
CLOSE
Current Station
Personal Weather Station
Location: Brookshire, TX
Elevation: 187 ft
Nearby Weather Stations

Elev 187 ft 29.80 °N, 95.98 °W | Updated 5 minutes ago

Overcast
Overcast
78.5 °F
Feels Like 82 °F
N
0.0
Wind Variable Wind from SW
Gusts 0.0 mph

Today
High -- | Low -- °F
--% Chance of Precip.
Yesterday
High -- | Low -- °F
Precip. -- in
7:02 AM 7:44 PM
Waning Gibbous, 66% visible
Pressure 29.88 in
Visibility 10.0 miles
Clouds Mostly Cloudy 9000 ft
Heat Index 82 °F
Dew Point 75 °F
Humidity 90%
Rainfall 0.06 in
Snow Depth Not available.
UV 1 out of 12
Pollen 5.30 out of 12
Air Quality Not available.
Flu Activity Not available.
METAR KTME 032255Z AUTO 00000KT 10SM BKN090 27/24 A2988 RMK AO2
Pressure 29.88 in
Visibility 10.0 miles
Clouds Mostly Cloudy 9000 ft
Heat Index 82 °F
Dew Point 75 °F
Humidity 90%
Rainfall 0.06 in
Snow Depth Not available.
UV 1 out of 12
Pollen 5.30 out of 12
Air Quality Not available.
Flu Activity Not available.
METAR KTME 032255Z AUTO 00000KT 10SM BKN090 27/24 A2988 RMK AO2

10-Day Weather Forecast

×

Almanac

Astronomy

Sep. 03, 2015 Rise Set
Actual Time
Civil Twilight
Nautical Twilight
Astronomical Twilight
Moon
Length of Visible Light
Length of Day
Tomorrow will be .
, % of the Moon is Illuminated

Today's Extremes

State Highs State Lows

Community

WunderPhotos

Upload Photos

1,852,058 photos uploaded!

WunderBlogs® & News

Nearby

Air Quality

  Air Quality AQ Index Pollutant
Not available.

Snow Depth

Station Depth Elevation

Earthquake Activity

City Distance Mag. Time & Date
Minimum magnitude displayed is 2.5.

Coastal Water Temperatures

Place Temperature

Stations

Nearby Weather Stations

Station Location Temp. Windchill Dew Point Humidity Wind Precip. Elev Updated Type